Nearby METAR Reports

 

KICL - Clarinda, Iowa, USA
Distance from station: N 49mi, 79km
Updated: Sat, 19-Jan-2019 6:55am CST
Overcast
Overcast
 Wind from N
Wind: N 26 mph , 43 km/h, Gust: 32 mph , 52 km/h
Temperature: 10°F , -12°C
Wind Chill: -11°F , -24°C
Dew Point: 7°F , -14°C
Humidity: 85%
Barometer: 30.21 inHg , 1023 hPa
Clouds: Overcast
Visibility: 10 miles , 16 km
Cloud details: Overcast 1700 ft
2019/01/19 12:55 KICL 191255Z AUTO 01023G28KT 10SM OVC017 M12/M14 A3021 RMK A
KDSM - Des Moines, Iowa, USA
Distance from station: NNE 122mi, 196km
Updated: Sat, 19-Jan-2019 6:54am CST
Light snow, Blowing, Snow, Mist, Overcast
Light snow, Blowing, Snow, Mist, Overcast
 Wind from N
Wind: N 20 mph , 31 km/h, Gust: 31 mph , 50 km/h
Temperature: 12°F , -11°C
Wind Chill: -6°F , -21°C
Dew Point: 9°F , -13°C
Humidity: 85%
Barometer: 30.18 inHg , 1022 hPa
Summary: Light snow, Blowing, Snow, Mist
Clouds: Overcast
Visibility: 6 miles , 10 km
Cloud details: Few Clouds 1100 ft
Overcast 1900 ft
2019/01/19 12:54 KDSM 191254Z 36017G27KT 6SM R31/4500VP6000FT -SN BLSN BR FEW011 OVC019 M11/M13 A3018 RMK AO2 PK WND 01027/1254 SLP235 T11061128 PNO $
KFNB - Falls City, Nebraska, USA
Distance from station: W 50mi, 80km
Updated: Sat, 19-Jan-2019 6:53am CST
Overcast
Overcast
 Wind from NNW
Wind: NNW 22 mph , 35 km/h, Gust: 35 mph , 56 km/h
Temperature: 12°F , -11°C
Wind Chill: -7°F , -22°C
Dew Point: 7°F , -14°C
Humidity: 79%
Barometer: 30.18 inHg , 1022 hPa
Clouds: Overcast
Visibility: 10 miles , 16 km
Cloud details: Overcast 1700 ft
2019/01/19 12:53 KFNB 191253Z AUTO 34019G30KT 10SM OVC017 M11/M14 A3018 RMK AO2 PK WND 35035/1203 SLP234 T11061139 $
 
KMCI - Kansas City, Missouri, USA
Distance from station: S 65mi, 104km
Updated: Sat, 19-Jan-2019 6:53am CST
Mist, Overcast
Mist, Overcast
 Wind from N
Wind: N 21 mph , 33 km/h, Gust: 35 mph , 56 km/h
Temperature: 18°F , -8°C
Wind Chill: 1°F , -17°C
Dew Point: 18°F , -8°C
Humidity: 100%
Barometer: 30.06 inHg , 1017.9 hPa
Summary: Mist
Clouds: Overcast
Visibility: 6 miles , 10 km
Cloud details: Overcast 1100 ft
2019/01/19 12:53 KMCI 191253Z 35018G30KT 6SM BR OVC011 M08/M08 A3006 RMK AO2 PK WND 01033/1159 SLP188 I1000 T10781083 $
KOMA - Omaha, Nebraska, USA
Distance from station: NNW 105mi, 169km
Updated: Sat, 19-Jan-2019 5:52am CST
Light snow, Overcast
Light snow, Overcast
 Wind from NNW
Wind: NNW 22 mph , 35 km/h
Temperature: 9°F , -13°C
Wind Chill: -11°F , -24°C
Dew Point: 3°F , -16°C
Humidity: 78%
Barometer: 30.28 inHg , 1025.4 hPa
Summary: Light Snow
Clouds: Overcast
Visibility: 8 miles , 13 km
Cloud details: Few Clouds 1200 ft
Overcast 2500 ft
2019/01/19 11:52 KOMA 191152Z 34019KT 8SM -SN FEW012 OVC025 M13/M16 A3028 RMK AO2 PK WND 34026/1138 SLP271 4/003 P0000 60000 T11281161 11094 21128 53020 $
KRDK - Red Oak, Iowa, USA
Distance from station: N 70mi, 112km
Updated: Sat, 19-Jan-2019 6:55am CST
Overcast
Overcast
 Wind from N
Wind: N 22 mph , 35 km/h, Gust: 29 mph , 46 km/h
Temperature: 10°F , -12°C
Wind Chill: -10°F , -23°C
Dew Point: 7°F , -14°C
Humidity: 85%
Barometer: 30.24 inHg , 1024 hPa
Clouds: Overcast
Visibility: 10 miles , 16 km
Cloud details: Overcast 1800 ft
2019/01/19 12:55 KRDK 191255Z AUTO 36019G25KT 10SM OVC018 M12/M14 A3024 RMK AO2
 
KSTJ - Saint Joseph, Missouri, USA
Distance from station: SW 23mi, 37km
Updated: Sat, 19-Jan-2019 5:53am CST
Light snow, Mist, Overcast
Light snow, Mist, Overcast
 Wind from N
Wind: N 24 mph , 39 km/h, Gust: 35 mph , 56 km/h
Temperature: 18°F , -8°C
Wind Chill: 0°F , -18°C
Dew Point: 16°F , -9°C
Humidity: 93%
Barometer: 30.11 inHg , 1019.6 hPa
Summary: Light snow, Mist
Clouds: Overcast
Visibility: 4 miles , 6 km
Cloud details: Overcast 1500 ft
2019/01/19 11:53 KSTJ 191153Z AUTO 36021G30KT 4SM -SN BR OVC015 M08/M09 A3011 RMK AO2 PK WND 36033/1143 SLP206 P0000 60000 70010 T10831094 11050 21083 53013 $
KTOP - Topeka, Kansas, USA
Distance from station: SW 85mi, 137km
Updated: Sat, 19-Jan-2019 6:53am CST
Haze, Overcast
Haze, Overcast
 Wind from NNW
Wind: NNW 21 mph , 33 km/h, Gust: 33 mph , 54 km/h
Temperature: 16°F , -9°C
Wind Chill: -1°F , -18°C
Dew Point: 10°F , -12°C
Humidity: 79%
Barometer: 30.14 inHg , 1020.7 hPa
Summary: Haze
Clouds: Overcast
Visibility: 3 miles , 5 km
Cloud details: Overcast 1700 ft
2019/01/19 12:53 KTOP 191253Z 34018G29KT 3SM HZ OVC017 M09/M12 A3014 RMK AO2 PK WND 34034/1227 SLP216 T10891122 $
KICT - Wichita, Kansas, USA
Distance from station: SW 215mi, 346km
Updated: Sat, 19-Jan-2019 6:53am CST
Light snow, Mist, Overcast
Light snow, Mist, Overcast
 Wind from N
Wind: N 23 mph , 37 km/h, Gust: 35 mph , 56 km/h
Temperature: 18°F , -8°C
Wind Chill: 1°F , -17°C
Dew Point: 14°F , -10°C
Humidity: 86%
Barometer: 30.14 inHg , 1020.7 hPa
Summary: Light snow, Mist
Clouds: Overcast
Visibility: 6 miles , 10 km
Cloud details: Overcast 1700 ft
2019/01/19 12:53 KICT 191253Z 35020G30KT 6SM -SN BR OVC017 M08/M10 A3014 RMK AO2 PK WND 35039/1159 SLP220 P0000 T10781100 $